sensor_id;sensor_type;location;lat;lon;timestamp;pressure;altitude;pressure_sealevel;temperature
22828;BMP180;11580;52.562;13.418;2022-11-14T00:00:44;101449.00;;;11.50
22828;BMP180;11580;52.562;13.418;2022-11-14T00:03:30;101447.00;;;11.50
22828;BMP180;11580;52.562;13.418;2022-11-14T00:06:17;101441.00;;;11.50
22828;BMP180;11580;52.562;13.418;2022-11-14T00:09:03;101450.00;;;11.50
22828;BMP180;11580;52.562;13.418;2022-11-14T00:11:49;101447.00;;;11.50
22828;BMP180;11580;52.562;13.418;2022-11-14T00:14:34;101442.00;;;11.50
22828;BMP180;11580;52.562;13.418;2022-11-14T00:17:20;101443.00;;;11.50
22828;BMP180;11580;52.562;13.418;2022-11-14T00:20:09;101440.00;;;11.50
22828;BMP180;11580;52.562;13.418;2022-11-14T00:22:57;101426.00;;;11.50
22828;BMP180;11580;52.562;13.418;2022-11-14T00:25:43;101430.00;;;11.50
22828;BMP180;11580;52.562;13.418;2022-11-14T00:28:29;101420.00;;;11.50
22828;BMP180;11580;52.562;13.418;2022-11-14T00:31:14;101426.00;;;11.50
22828;BMP180;11580;52.562;13.418;2022-11-14T00:33:59;101422.00;;;11.40
22828;BMP180;11580;52.562;13.418;2022-11-14T00:36:45;101417.00;;;11.40
22828;BMP180;11580;52.562;13.418;2022-11-14T00:39:32;101414.00;;;11.40
22828;BMP180;11580;52.562;13.418;2022-11-14T00:42:18;101420.00;;;11.40
22828;BMP180;11580;52.562;13.418;2022-11-14T00:45:04;101410.00;;;11.30
22828;BMP180;11580;52.562;13.418;2022-11-14T00:47:50;101399.00;;;11.30
22828;BMP180;11580;52.562;13.418;2022-11-14T00:50:36;101414.00;;;11.30
22828;BMP180;11580;52.562;13.418;2022-11-14T00:53:22;101410.00;;;11.30
22828;BMP180;11580;52.562;13.418;2022-11-14T00:56:09;101411.00;;;11.30
22828;BMP180;11580;52.562;13.418;2022-11-14T00:58:54;101405.00;;;11.20
22828;BMP180;11580;52.562;13.418;2022-11-14T01:01:40;101403.00;;;11.20
22828;BMP180;11580;52.562;13.418;2022-11-14T01:04:26;101399.00;;;11.20
22828;BMP180;11580;52.562;13.418;2022-11-14T01:07:11;101386.00;;;11.10
22828;BMP180;11580;52.562;13.418;2022-11-14T01:09:57;101375.00;;;11.10
22828;BMP180;11580;52.562;13.418;2022-11-14T01:12:44;101375.00;;;11.00
22828;BMP180;11580;52.562;13.418;2022-11-14T01:15:30;101382.00;;;11.00
22828;BMP180;11580;52.562;13.418;2022-11-14T01:18:19;101370.00;;;11.00
22828;BMP180;11580;52.562;13.418;2022-11-14T01:21:07;101327.00;;;11.00
22828;BMP180;11580;52.562;13.418;2022-11-14T01:23:53;101377.00;;;10.90
22828;BMP180;11580;52.562;13.418;2022-11-14T01:26:39;101371.00;;;10.90
22828;BMP180;11580;52.562;13.418;2022-11-14T01:29:26;101361.00;;;10.90
22828;BMP180;11580;52.562;13.418;2022-11-14T01:32:12;101369.00;;;10.80
22828;BMP180;11580;52.562;13.418;2022-11-14T01:34:57;101341.00;;;10.80
22828;BMP180;11580;52.562;13.418;2022-11-14T01:37:43;101349.00;;;10.80
22828;BMP180;11580;52.562;13.418;2022-11-14T01:40:29;101295.00;;;10.70
22828;BMP180;11580;52.562;13.418;2022-11-14T01:43:25;101341.00;;;10.70
22828;BMP180;11580;52.562;13.418;2022-11-14T01:46:17;101338.00;;;10.60
22828;BMP180;11580;52.562;13.418;2022-11-14T01:49:12;101329.00;;;10.60
22828;BMP180;11580;52.562;13.418;2022-11-14T01:52:04;101319.00;;;10.60
22828;BMP180;11580;52.562;13.418;2022-11-14T01:54:53;101321.00;;;10.50
22828;BMP180;11580;52.562;13.418;2022-11-14T01:57:43;101304.00;;;10.50
22828;BMP180;11580;52.562;13.418;2022-11-14T02:00:30;101312.00;;;10.40
22828;BMP180;11580;52.562;13.418;2022-11-14T02:03:18;101323.00;;;10.40
22828;BMP180;11580;52.562;13.418;2022-11-14T02:06:07;101308.00;;;10.40
22828;BMP180;11580;52.562;13.418;2022-11-14T02:08:56;101299.00;;;10.30
22828;BMP180;11580;52.562;13.418;2022-11-14T02:11:44;101303.00;;;10.40
22828;BMP180;11580;52.562;13.418;2022-11-14T02:14:32;101302.00;;;10.40
22828;BMP180;11580;52.562;13.418;2022-11-14T02:17:19;101287.00;;;10.40
22828;BMP180;11580;52.562;13.418;2022-11-14T02:20:17;101293.00;;;10.50
22828;BMP180;11580;52.562;13.418;2022-11-14T02:23:04;101300.00;;;10.50
22828;BMP180;11580;52.562;13.418;2022-11-14T02:25:49;101290.00;;;10.60
22828;BMP180;11580;52.562;13.418;2022-11-14T02:28:35;101288.00;;;10.70
22828;BMP180;11580;52.562;13.418;2022-11-14T02:31:21;101288.00;;;10.70
22828;BMP180;11580;52.562;13.418;2022-11-14T02:34:06;101282.00;;;10.80
22828;BMP180;11580;52.562;13.418;2022-11-14T02:36:53;101287.00;;;10.90
22828;BMP180;11580;52.562;13.418;2022-11-14T02:39:39;101278.00;;;11.00
22828;BMP180;11580;52.562;13.418;2022-11-14T02:42:25;101280.00;;;11.00
22828;BMP180;11580;52.562;13.418;2022-11-14T02:45:12;101270.00;;;11.10
22828;BMP180;11580;52.562;13.418;2022-11-14T02:47:57;101268.00;;;11.20
22828;BMP180;11580;52.562;13.418;2022-11-14T02:50:43;101250.00;;;11.20
22828;BMP180;11580;52.562;13.418;2022-11-14T02:53:30;101257.00;;;11.20
22828;BMP180;11580;52.562;13.418;2022-11-14T02:56:15;101260.00;;;11.30
22828;BMP180;11580;52.562;13.418;2022-11-14T02:59:02;101258.00;;;11.30
22828;BMP180;11580;52.562;13.418;2022-11-14T03:01:47;101225.00;;;11.30
22828;BMP180;11580;52.562;13.418;2022-11-14T03:04:33;101259.00;;;11.30
22828;BMP180;11580;52.562;13.418;2022-11-14T03:07:18;101252.00;;;11.30
22828;BMP180;11580;52.562;13.418;2022-11-14T03:10:07;101248.00;;;11.30
22828;BMP180;11580;52.562;13.418;2022-11-14T03:12:53;101243.00;;;11.30
22828;BMP180;11580;52.562;13.418;2022-11-14T03:15:40;101224.00;;;11.20
22828;BMP180;11580;52.562;13.418;2022-11-14T03:18:25;101231.00;;;11.20
22828;BMP180;11580;52.562;13.418;2022-11-14T03:21:14;101239.00;;;11.20
22828;BMP180;11580;52.562;13.418;2022-11-14T03:24:00;101208.00;;;11.10
22828;BMP180;11580;52.562;13.418;2022-11-14T03:26:47;101241.00;;;11.10
22828;BMP180;11580;52.562;13.418;2022-11-14T03:29:33;101232.00;;;11.10
22828;BMP180;11580;52.562;13.418;2022-11-14T03:32:18;101236.00;;;11.10
22828;BMP180;11580;52.562;13.418;2022-11-14T03:35:05;101239.00;;;11.00
22828;BMP180;11580;52.562;13.418;2022-11-14T03:37:51;101228.00;;;11.00
22828;BMP180;11580;52.562;13.418;2022-11-14T03:40:39;101224.00;;;11.00
22828;BMP180;11580;52.562;13.418;2022-11-14T03:43:30;101218.00;;;11.00
22828;BMP180;11580;52.562;13.418;2022-11-14T03:46:16;101207.00;;;11.00
22828;BMP180;11580;52.562;13.418;2022-11-14T03:49:01;101211.00;;;11.00
22828;BMP180;11580;52.562;13.418;2022-11-14T03:51:47;101208.00;;;11.00
22828;BMP180;11580;52.562;13.418;2022-11-14T03:54:34;101215.00;;;11.00
22828;BMP180;11580;52.562;13.418;2022-11-14T03:57:19;101214.00;;;10.90
22828;BMP180;11580;52.562;13.418;2022-11-14T04:00:08;101212.00;;;10.90
22828;BMP180;11580;52.562;13.418;2022-11-14T04:02:54;101204.00;;;10.90
22828;BMP180;11580;52.562;13.418;2022-11-14T04:05:42;101201.00;;;10.90
22828;BMP180;11580;52.562;13.418;2022-11-14T04:08:30;101204.00;;;10.90
22828;BMP180;11580;52.562;13.418;2022-11-14T04:11:15;101198.00;;;10.90
22828;BMP180;11580;52.562;13.418;2022-11-14T04:14:01;101201.00;;;10.90
22828;BMP180;11580;52.562;13.418;2022-11-14T04:16:48;101190.00;;;11.00
22828;BMP180;11580;52.562;13.418;2022-11-14T04:19:33;101193.00;;;11.00
22828;BMP180;11580;52.562;13.418;2022-11-14T04:22:19;101190.00;;;11.00
22828;BMP180;11580;52.562;13.418;2022-11-14T04:25:07;101190.00;;;11.00
22828;BMP180;11580;52.562;13.418;2022-11-14T04:27:52;101185.00;;;11.00
22828;BMP180;11580;52.562;13.418;2022-11-14T04:30:38;101181.00;;;11.00
22828;BMP180;11580;52.562;13.418;2022-11-14T04:33:25;101180.00;;;11.00
22828;BMP180;11580;52.562;13.418;2022-11-14T04:36:11;101176.00;;;10.90
22828;BMP180;11580;52.562;13.418;2022-11-14T04:38:56;101133.00;;;10.90
22828;BMP180;11580;52.562;13.418;2022-11-14T04:41:42;101168.00;;;10.90
22828;BMP180;11580;52.562;13.418;2022-11-14T04:44:28;101161.00;;;10.80
22828;BMP180;11580;52.562;13.418;2022-11-14T04:47:13;101163.00;;;10.70
22828;BMP180;11580;52.562;13.418;2022-11-14T04:50:00;101161.00;;;10.70
22828;BMP180;11580;52.562;13.418;2022-11-14T04:52:46;101164.00;;;10.60
22828;BMP180;11580;52.562;13.418;2022-11-14T04:55:35;101164.00;;;10.60
22828;BMP180;11580;52.562;13.418;2022-11-14T04:58:20;101160.00;;;10.50
22828;BMP180;11580;52.562;13.418;2022-11-14T05:01:07;101159.00;;;10.50
22828;BMP180;11580;52.562;13.418;2022-11-14T05:03:53;101160.00;;;10.40
22828;BMP180;11580;52.562;13.418;2022-11-14T05:06:41;101156.00;;;10.40
22828;BMP180;11580;52.562;13.418;2022-11-14T05:09:27;101161.00;;;10.30
22828;BMP180;11580;52.562;13.418;2022-11-14T05:12:13;101151.00;;;10.30
22828;BMP180;11580;52.562;13.418;2022-11-14T05:15:00;101153.00;;;10.30
22828;BMP180;11580;52.562;13.418;2022-11-14T05:17:45;101152.00;;;10.20
22828;BMP180;11580;52.562;13.418;2022-11-14T05:20:31;101152.00;;;10.20
22828;BMP180;11580;52.562;13.418;2022-11-14T05:23:21;101152.00;;;10.20
22828;BMP180;11580;52.562;13.418;2022-11-14T05:26:10;101146.00;;;10.20
22828;BMP180;11580;52.562;13.418;2022-11-14T05:28:56;101145.00;;;10.20
22828;BMP180;11580;52.562;13.418;2022-11-14T05:31:42;101143.00;;;10.20
22828;BMP180;11580;52.562;13.418;2022-11-14T05:34:27;101143.00;;;10.20
22828;BMP180;11580;52.562;13.418;2022-11-14T05:37:13;101142.00;;;10.20
22828;BMP180;11580;52.562;13.418;2022-11-14T05:40:00;101138.00;;;10.20
22828;BMP180;11580;52.562;13.418;2022-11-14T05:42:46;101139.00;;;10.20
22828;BMP180;11580;52.562;13.418;2022-11-14T05:45:31;101136.00;;;10.20
22828;BMP180;11580;52.562;13.418;2022-11-14T05:48:17;101138.00;;;10.20
22828;BMP180;11580;52.562;13.418;2022-11-14T05:51:04;101125.00;;;10.30
22828;BMP180;11580;52.562;13.418;2022-11-14T05:53:50;101142.00;;;10.30
22828;BMP180;11580;52.562;13.418;2022-11-14T05:56:37;101137.00;;;10.40
22828;BMP180;11580;52.562;13.418;2022-11-14T05:59:23;101139.00;;;10.50
22828;BMP180;11580;52.562;13.418;2022-11-14T06:02:09;101137.00;;;10.50
22828;BMP180;11580;52.562;13.418;2022-11-14T06:04:55;101144.00;;;10.60
22828;BMP180;11580;52.562;13.418;2022-11-14T06:07:40;101135.00;;;10.60
22828;BMP180;11580;52.562;13.418;2022-11-14T06:10:26;101141.00;;;10.70
22828;BMP180;11580;52.562;13.418;2022-11-14T06:13:13;101138.00;;;10.80
22828;BMP180;11580;52.562;13.418;2022-11-14T06:15:59;101145.00;;;10.80
22828;BMP180;11580;52.562;13.418;2022-11-14T06:18:46;101140.00;;;10.90
22828;BMP180;11580;52.562;13.418;2022-11-14T06:21:32;101140.00;;;10.90
22828;BMP180;11580;52.562;13.418;2022-11-14T06:24:17;101136.00;;;11.00
22828;BMP180;11580;52.562;13.418;2022-11-14T06:27:03;101134.00;;;11.00
22828;BMP180;11580;52.562;13.418;2022-11-14T06:29:50;101142.00;;;11.00
22828;BMP180;11580;52.562;13.418;2022-11-14T06:32:36;101135.00;;;11.00
22828;BMP180;11580;52.562;13.418;2022-11-14T06:35:21;101140.00;;;11.00
22828;BMP180;11580;52.562;13.418;2022-11-14T06:38:07;101137.00;;;11.10
22828;BMP180;11580;52.562;13.418;2022-11-14T06:41:00;101135.00;;;11.00
22828;BMP180;11580;52.562;13.418;2022-11-14T06:43:49;101107.00;;;11.00
22828;BMP180;11580;52.562;13.418;2022-11-14T06:46:37;101132.00;;;11.00
22828;BMP180;11580;52.562;13.418;2022-11-14T06:49:23;101140.00;;;11.00
22828;BMP180;11580;52.562;13.418;2022-11-14T06:52:09;101136.00;;;11.00
22828;BMP180;11580;52.562;13.418;2022-11-14T06:54:54;101137.00;;;11.00
22828;BMP180;11580;52.562;13.418;2022-11-14T06:57:40;101140.00;;;11.00
22828;BMP180;11580;52.562;13.418;2022-11-14T07:00:25;101130.00;;;11.00
22828;BMP180;11580;52.562;13.418;2022-11-14T07:03:12;101128.00;;;11.00
22828;BMP180;11580;52.562;13.418;2022-11-14T07:05:58;101121.00;;;11.00
22828;BMP180;11580;52.562;13.418;2022-11-14T07:08:44;101134.00;;;11.00
22828;BMP180;11580;52.562;13.418;2022-11-14T07:11:29;101135.00;;;11.10
22828;BMP180;11580;52.562;13.418;2022-11-14T07:14:16;101136.00;;;11.10
22828;BMP180;11580;52.562;13.418;2022-11-14T07:17:02;101144.00;;;11.10
22828;BMP180;11580;52.562;13.418;2022-11-14T07:19:48;101122.00;;;11.20
22828;BMP180;11580;52.562;13.418;2022-11-14T07:22:34;101139.00;;;11.20
22828;BMP180;11580;52.562;13.418;2022-11-14T07:25:20;101144.00;;;11.30
22828;BMP180;11580;52.562;13.418;2022-11-14T07:28:06;101155.00;;;11.30
22828;BMP180;11580;52.562;13.418;2022-11-14T07:30:52;101158.00;;;11.40
22828;BMP180;11580;52.562;13.418;2022-11-14T07:33:38;101147.00;;;11.40
22828;BMP180;11580;52.562;13.418;2022-11-14T07:36:25;101134.00;;;11.50
22828;BMP180;11580;52.562;13.418;2022-11-14T07:39:11;101135.00;;;11.50
22828;BMP180;11580;52.562;13.418;2022-11-14T07:41:57;101128.00;;;11.50
22828;BMP180;11580;52.562;13.418;2022-11-14T07:44:43;101123.00;;;11.50
22828;BMP180;11580;52.562;13.418;2022-11-14T07:47:28;101119.00;;;11.50
22828;BMP180;11580;52.562;13.418;2022-11-14T07:50:14;101117.00;;;11.50
22828;BMP180;11580;52.562;13.418;2022-11-14T07:53:01;101119.00;;;11.50
22828;BMP180;11580;52.562;13.418;2022-11-14T07:55:47;101121.00;;;11.40
22828;BMP180;11580;52.562;13.418;2022-11-14T07:58:34;101120.00;;;11.40
22828;BMP180;11580;52.562;13.418;2022-11-14T08:01:20;101116.00;;;11.40
22828;BMP180;11580;52.562;13.418;2022-11-14T08:04:06;101110.00;;;11.40
22828;BMP180;11580;52.562;13.418;2022-11-14T08:06:52;101114.00;;;11.30
22828;BMP180;11580;52.562;13.418;2022-11-14T08:09:39;101115.00;;;11.40
22828;BMP180;11580;52.562;13.418;2022-11-14T08:12:24;101116.00;;;11.40
22828;BMP180;11580;52.562;13.418;2022-11-14T08:15:12;101122.00;;;11.50
22828;BMP180;11580;52.562;13.418;2022-11-14T08:17:59;101111.00;;;11.60
22828;BMP180;11580;52.562;13.418;2022-11-14T08:20:45;101103.00;;;11.70
22828;BMP180;11580;52.562;13.418;2022-11-14T08:23:31;101117.00;;;11.70
22828;BMP180;11580;52.562;13.418;2022-11-14T08:26:18;101116.00;;;11.80
22828;BMP180;11580;52.562;13.418;2022-11-14T08:29:04;101124.00;;;11.80
22828;BMP180;11580;52.562;13.418;2022-11-14T08:31:50;101120.00;;;11.80
22828;BMP180;11580;52.562;13.418;2022-11-14T08:34:35;101119.00;;;11.80
22828;BMP180;11580;52.562;13.418;2022-11-14T08:37:21;101115.00;;;11.90
22828;BMP180;11580;52.562;13.418;2022-11-14T08:40:08;101114.00;;;12.00
22828;BMP180;11580;52.562;13.418;2022-11-14T08:42:59;101103.00;;;12.00
22828;BMP180;11580;52.562;13.418;2022-11-14T08:45:45;101107.00;;;12.00
22828;BMP180;11580;52.562;13.418;2022-11-14T08:48:31;101104.00;;;12.00
22828;BMP180;11580;52.562;13.418;2022-11-14T08:51:17;101108.00;;;12.10
22828;BMP180;11580;52.562;13.418;2022-11-14T08:54:03;101102.00;;;12.10
22828;BMP180;11580;52.562;13.418;2022-11-14T08:56:49;101110.00;;;12.20
22828;BMP180;11580;52.562;13.418;2022-11-14T08:59:35;101082.00;;;12.30
22828;BMP180;11580;52.562;13.418;2022-11-14T09:02:21;101103.00;;;12.40
22828;BMP180;11580;52.562;13.418;2022-11-14T09:05:07;101102.00;;;12.40
22828;BMP180;11580;52.562;13.418;2022-11-14T09:07:53;101107.00;;;12.50
22828;BMP180;11580;52.562;13.418;2022-11-14T09:10:39;101102.00;;;12.50
22828;BMP180;11580;52.562;13.418;2022-11-14T09:13:24;101104.00;;;12.60
22828;BMP180;11580;52.562;13.418;2022-11-14T09:16:12;101090.00;;;12.60
22828;BMP180;11580;52.562;13.418;2022-11-14T09:18:58;101086.00;;;12.60
22828;BMP180;11580;52.562;13.418;2022-11-14T09:21:44;101083.00;;;12.60
22828;BMP180;11580;52.562;13.418;2022-11-14T09:24:29;101089.00;;;12.60
22828;BMP180;11580;52.562;13.418;2022-11-14T09:27:15;101093.00;;;12.60
22828;BMP180;11580;52.562;13.418;2022-11-14T09:30:00;101078.00;;;12.60
22828;BMP180;11580;52.562;13.418;2022-11-14T09:32:48;101066.00;;;12.60
22828;BMP180;11580;52.562;13.418;2022-11-14T09:35:34;101080.00;;;12.60
22828;BMP180;11580;52.562;13.418;2022-11-14T09:38:21;101082.00;;;12.50
22828;BMP180;11580;52.562;13.418;2022-11-14T09:41:23;101073.00;;;12.50
22828;BMP180;11580;52.562;13.418;2022-11-14T09:44:31;101085.00;;;12.50
22828;BMP180;11580;52.562;13.418;2022-11-14T09:47:27;101089.00;;;12.50
22828;BMP180;11580;52.562;13.418;2022-11-14T09:50:19;101081.00;;;12.50
22828;BMP180;11580;52.562;13.418;2022-11-14T09:53:15;101086.00;;;12.40
22828;BMP180;11580;52.562;13.418;2022-11-14T09:56:08;101086.00;;;12.40
22828;BMP180;11580;52.562;13.418;2022-11-14T09:58:55;101070.00;;;12.50
22828;BMP180;11580;52.562;13.418;2022-11-14T10:01:51;101075.00;;;12.50
22828;BMP180;11580;52.562;13.418;2022-11-14T10:04:52;101061.00;;;12.60
22828;BMP180;11580;52.562;13.418;2022-11-14T10:07:56;101061.00;;;12.60
22828;BMP180;11580;52.562;13.418;2022-11-14T10:10:52;101066.00;;;12.70
22828;BMP180;11580;52.562;13.418;2022-11-14T10:13:58;101055.00;;;12.80
22828;BMP180;11580;52.562;13.418;2022-11-14T10:16:58;101044.00;;;12.80
22828;BMP180;11580;52.562;13.418;2022-11-14T10:19:54;101045.00;;;12.80
22828;BMP180;11580;52.562;13.418;2022-11-14T10:23:15;101036.00;;;12.80
22828;BMP180;11580;52.562;13.418;2022-11-14T10:26:15;101015.00;;;12.70
22828;BMP180;11580;52.562;13.418;2022-11-14T10:29:39;101030.00;;;12.80
22828;BMP180;11580;52.562;13.418;2022-11-14T10:33:07;101042.00;;;12.80
22828;BMP180;11580;52.562;13.418;2022-11-14T10:36:05;101039.00;;;12.90
22828;BMP180;11580;52.562;13.418;2022-11-14T10:39:02;101036.00;;;13.00
22828;BMP180;11580;52.562;13.418;2022-11-14T10:41:55;101037.00;;;13.10
22828;BMP180;11580;52.562;13.418;2022-11-14T10:44:50;100999.00;;;13.20
22828;BMP180;11580;52.562;13.418;2022-11-14T10:47:45;101031.00;;;13.30
22828;BMP180;11580;52.562;13.418;2022-11-14T10:50:45;101010.00;;;13.30
22828;BMP180;11580;52.562;13.418;2022-11-14T10:53:47;101019.00;;;13.40
22828;BMP180;11580;52.562;13.418;2022-11-14T10:56:45;101009.00;;;13.50
22828;BMP180;11580;52.562;13.418;2022-11-14T10:59:31;101009.00;;;13.50
22828;BMP180;11580;52.562;13.418;2022-11-14T11:02:16;101008.00;;;13.60
22828;BMP180;11580;52.562;13.418;2022-11-14T11:05:14;101012.00;;;13.60
22828;BMP180;11580;52.562;13.418;2022-11-14T11:08:00;101014.00;;;13.60
22828;BMP180;11580;52.562;13.418;2022-11-14T11:11:04;100997.00;;;13.70
22828;BMP180;11580;52.562;13.418;2022-11-14T11:14:18;100997.00;;;13.70
22828;BMP180;11580;52.562;13.418;2022-11-14T11:17:19;100994.00;;;13.80
22828;BMP180;11580;52.562;13.418;2022-11-14T11:20:30;100994.00;;;13.80
22828;BMP180;11580;52.562;13.418;2022-11-14T11:23:21;100990.00;;;13.80
22828;BMP180;11580;52.562;13.418;2022-11-14T11:26:19;100976.00;;;13.90
22828;BMP180;11580;52.562;13.418;2022-11-14T11:29:15;100975.00;;;13.90
22828;BMP180;11580;52.562;13.418;2022-11-14T11:32:01;100977.00;;;13.90
22828;BMP180;11580;52.562;13.418;2022-11-14T11:34:47;100980.00;;;14.00
22828;BMP180;11580;52.562;13.418;2022-11-14T11:37:37;100972.00;;;14.00
22828;BMP180;11580;52.562;13.418;2022-11-14T11:40:26;100965.00;;;14.00
22828;BMP180;11580;52.562;13.418;2022-11-14T11:43:22;100965.00;;;14.10
22828;BMP180;11580;52.562;13.418;2022-11-14T11:46:21;100953.00;;;14.10
22828;BMP180;11580;52.562;13.418;2022-11-14T11:49:15;100959.00;;;14.10
22828;BMP180;11580;52.562;13.418;2022-11-14T11:52:11;100952.00;;;14.10
22828;BMP180;11580;52.562;13.418;2022-11-14T11:55:04;100948.00;;;14.20
22828;BMP180;11580;52.562;13.418;2022-11-14T11:58:04;100943.00;;;14.20
22828;BMP180;11580;52.562;13.418;2022-11-14T12:00:51;100944.00;;;14.20
22828;BMP180;11580;52.562;13.418;2022-11-14T12:03:42;100944.00;;;14.20
22828;BMP180;11580;52.562;13.418;2022-11-14T12:06:40;100942.00;;;14.30
22828;BMP180;11580;52.562;13.418;2022-11-14T12:09:38;100942.00;;;14.30
22828;BMP180;11580;52.562;13.418;2022-11-14T12:12:46;100944.00;;;14.30
22828;BMP180;11580;52.562;13.418;2022-11-14T12:15:50;100936.00;;;14.30
22828;BMP180;11580;52.562;13.418;2022-11-14T12:19:09;100936.00;;;14.30
22828;BMP180;11580;52.562;13.418;2022-11-14T12:22:27;100938.00;;;14.40
22828;BMP180;11580;52.562;13.418;2022-11-14T12:25:43;100940.00;;;14.40
22828;BMP180;11580;52.562;13.418;2022-11-14T12:28:56;100938.00;;;14.40
22828;BMP180;11580;52.562;13.418;2022-11-14T12:31:58;100934.00;;;14.40
22828;BMP180;11580;52.562;13.418;2022-11-14T12:34:49;100950.00;;;14.50
22828;BMP180;11580;52.562;13.418;2022-11-14T12:37:42;100951.00;;;14.50
22828;BMP180;11580;52.562;13.418;2022-11-14T12:40:33;100936.00;;;14.50
22828;BMP180;11580;52.562;13.418;2022-11-14T12:43:33;100930.00;;;14.50
22828;BMP180;11580;52.562;13.418;2022-11-14T12:46:19;100921.00;;;14.50
22828;BMP180;11580;52.562;13.418;2022-11-14T12:49:57;100924.00;;;14.60
22828;BMP180;11580;52.562;13.418;2022-11-14T12:52:49;100928.00;;;14.60
22828;BMP180;11580;52.562;13.418;2022-11-14T12:56:00;100927.00;;;14.60
22828;BMP180;11580;52.562;13.418;2022-11-14T12:59:09;100926.00;;;14.60
22828;BMP180;11580;52.562;13.418;2022-11-14T13:05:54;100928.00;;;14.70
22828;BMP180;11580;52.562;13.418;2022-11-14T13:09:07;100923.00;;;14.70
22828;BMP180;11580;52.562;13.418;2022-11-14T13:11:55;100919.00;;;14.70
22828;BMP180;11580;52.562;13.418;2022-11-14T13:15:24;100920.00;;;14.70
22828;BMP180;11580;52.562;13.418;2022-11-14T13:18:28;100923.00;;;14.70
22828;BMP180;11580;52.562;13.418;2022-11-14T13:21:33;100926.00;;;14.70
22828;BMP180;11580;52.562;13.418;2022-11-14T13:25:19;100922.00;;;14.80
22828;BMP180;11580;52.562;13.418;2022-11-14T13:28:42;100918.00;;;14.80
22828;BMP180;11580;52.562;13.418;2022-11-14T13:31:45;100912.00;;;14.80
22828;BMP180;11580;52.562;13.418;2022-11-14T13:34:58;100906.00;;;14.80
22828;BMP180;11580;52.562;13.418;2022-11-14T13:38:11;100907.00;;;14.80
22828;BMP180;11580;52.562;13.418;2022-11-14T13:41:20;100903.00;;;14.80
22828;BMP180;11580;52.562;13.418;2022-11-14T13:44:55;100905.00;;;14.80
22828;BMP180;11580;52.562;13.418;2022-11-14T13:48:21;100888.00;;;14.80
22828;BMP180;11580;52.562;13.418;2022-11-14T13:51:16;100888.00;;;14.70
22828;BMP180;11580;52.562;13.418;2022-11-14T13:54:10;100892.00;;;14.70
22828;BMP180;11580;52.562;13.418;2022-11-14T13:57:10;100883.00;;;14.70
22828;BMP180;11580;52.562;13.418;2022-11-14T14:00:07;100880.00;;;14.70
22828;BMP180;11580;52.562;13.418;2022-11-14T14:03:18;100884.00;;;14.70
22828;BMP180;11580;52.562;13.418;2022-11-14T14:06:32;100878.00;;;14.70
22828;BMP180;11580;52.562;13.418;2022-11-14T14:09:32;100878.00;;;14.70
22828;BMP180;11580;52.562;13.418;2022-11-14T14:12:38;100885.00;;;14.70
22828;BMP180;11580;52.562;13.418;2022-11-14T14:15:35;100881.00;;;14.60
22828;BMP180;11580;52.562;13.418;2022-11-14T14:18:36;100876.00;;;14.60
22828;BMP180;11580;52.562;13.418;2022-11-14T14:21:38;100870.00;;;14.60
22828;BMP180;11580;52.562;13.418;2022-11-14T14:24:45;100868.00;;;14.60
22828;BMP180;11580;52.562;13.418;2022-11-14T14:27:39;100874.00;;;14.50
22828;BMP180;11580;52.562;13.418;2022-11-14T14:30:26;100878.00;;;14.50
22828;BMP180;11580;52.562;13.418;2022-11-14T14:33:14;100866.00;;;14.50
22828;BMP180;11580;52.562;13.418;2022-11-14T14:36:00;100861.00;;;14.40
22828;BMP180;11580;52.562;13.418;2022-11-14T14:38:47;100857.00;;;14.40
22828;BMP180;11580;52.562;13.418;2022-11-14T14:41:34;100852.00;;;14.40
22828;BMP180;11580;52.562;13.418;2022-11-14T14:44:25;100850.00;;;14.30
22828;BMP180;11580;52.562;13.418;2022-11-14T14:47:26;100833.00;;;14.30
22828;BMP180;11580;52.562;13.418;2022-11-14T14:50:18;100847.00;;;14.20
22828;BMP180;11580;52.562;13.418;2022-11-14T14:53:07;100827.00;;;14.20
22828;BMP180;11580;52.562;13.418;2022-11-14T14:56:12;100844.00;;;14.10
22828;BMP180;11580;52.562;13.418;2022-11-14T14:59:17;100812.00;;;14.00
22828;BMP180;11580;52.562;13.418;2022-11-14T15:02:03;100844.00;;;14.00
22828;BMP180;11580;52.562;13.418;2022-11-14T15:04:49;100835.00;;;13.90
22828;BMP180;11580;52.562;13.418;2022-11-14T15:07:38;100833.00;;;13.90
22828;BMP180;11580;52.562;13.418;2022-11-14T15:10:27;100831.00;;;13.80
22828;BMP180;11580;52.562;13.418;2022-11-14T15:13:16;100823.00;;;13.70
22828;BMP180;11580;52.562;13.418;2022-11-14T15:16:05;100827.00;;;13.70
22828;BMP180;11580;52.562;13.418;2022-11-14T15:18:55;100821.00;;;13.60
22828;BMP180;11580;52.562;13.418;2022-11-14T15:21:41;100827.00;;;13.50
22828;BMP180;11580;52.562;13.418;2022-11-14T15:24:27;100825.00;;;13.40
22828;BMP180;11580;52.562;13.418;2022-11-14T15:27:15;100825.00;;;13.40
22828;BMP180;11580;52.562;13.418;2022-11-14T15:30:04;100821.00;;;13.30
22828;BMP180;11580;52.562;13.418;2022-11-14T15:32:54;100816.00;;;13.20
22828;BMP180;11580;52.562;13.418;2022-11-14T15:35:40;100813.00;;;13.20
22828;BMP180;11580;52.562;13.418;2022-11-14T15:38:27;100812.00;;;13.10
22828;BMP180;11580;52.562;13.418;2022-11-14T15:41:19;100806.00;;;13.00
22828;BMP180;11580;52.562;13.418;2022-11-14T15:44:05;100815.00;;;12.90
22828;BMP180;11580;52.562;13.418;2022-11-14T15:46:51;100804.00;;;12.80
22828;BMP180;11580;52.562;13.418;2022-11-14T15:49:38;100801.00;;;12.80
22828;BMP180;11580;52.562;13.418;2022-11-14T15:52:29;100803.00;;;12.70
22828;BMP180;11580;52.562;13.418;2022-11-14T15:55:19;100797.00;;;12.70
22828;BMP180;11580;52.562;13.418;2022-11-14T15:58:07;100796.00;;;12.60
22828;BMP180;11580;52.562;13.418;2022-11-14T16:00:54;100800.00;;;12.60